Time;durP1;ratioP1;P1;durP2;ratioP2;P2;SDS_P1;SDS_P2;PMS_P1;PMS_P2;Temp;Humidity;BMP_temperature;BMP_pressure;BME280_temperature;BME280_humidity;BME280_pressure;Samples;Min_cycle;Max_cycle;Signal;HPM_P1;HPM_P2
2022/08/05 00:01:19;;;;;;;;;8.00;5.00;;;;;22.12;59.33;101018.69;5120606;27;45493;-50
2022/08/05 00:03:46;;;;;;;;;5.60;4.40;;;;;21.98;59.47;101052.25;5120629;27;45393;-58
2022/08/05 00:06:11;;;;;;;;;4.25;4.25;;;;;21.92;60.93;101110.03;5120762;27;45456;-52
2022/08/05 00:08:37;;;;;;;;;4.75;3.75;;;;;21.87;61.44;101071.91;5119295;27;46128;-58
2022/08/05 00:11:10;;;;;;;;;3.75;3.75;;;;;21.86;60.32;101198.34;5120523;27;45371;-54
2022/08/05 00:13:38;;;;;;;;;3.00;3.00;;;;;21.91;62.12;101265.44;5120476;27;45483;-56
2022/08/05 00:16:05;;;;;;;;;5.75;3.50;;;;;21.93;60.74;101279.63;5120907;27;45389;-58
2022/08/05 00:18:30;;;;;;;;;3.00;3.00;;;;;21.92;60.52;101291.50;5120578;27;45367;-55
2022/08/05 00:20:56;;;;;;;;;8.25;4.25;;;;;21.97;61.41;101290.88;5120537;27;45229;-59
2022/08/05 00:23:22;;;;;;;;;7.00;4.00;;;;;21.84;62.07;101224.00;5119779;27;45456;-55
2022/08/05 00:25:47;;;;;;;;;4.75;4.25;;;;;21.97;63.03;101215.03;5120606;27;45497;-53
2022/08/05 00:28:13;;;;;;;;;5.00;3.00;;;;;21.97;63.30;101237.53;5120542;27;46136;-53
2022/08/05 00:30:39;;;;;;;;;4.00;4.00;;;;;21.88;63.44;101276.72;5121159;27;45596;-59
2022/08/05 00:33:05;;;;;;;;;4.75;3.75;;;;;21.99;61.34;101286.91;5121372;27;45367;-60
2022/08/05 00:35:30;;;;;;;;;4.00;4.00;;;;;21.99;62.10;101173.13;5121980;27;45450;-58
2022/08/05 00:37:56;;;;;;;;;1.75;1.75;;;;;21.90;62.02;101164.38;5121189;27;46018;-55
2022/08/05 00:40:24;;;;;;;;;6.25;4.25;;;;;21.89;63.23;101267.53;5120837;27;45456;-55
2022/08/05 00:42:49;;;;;;;;;4.00;4.00;;;;;21.95;63.53;101320.03;5103094;27;45374;-61
2022/08/05 00:45:15;;;;;;;;;5.25;4.00;;;;;22.00;61.69;101348.19;5121397;27;45287;-59
2022/08/05 00:47:40;;;;;;;;;8.00;4.75;;;;;22.03;61.84;101309.81;5120207;27;46758;-57
2022/08/05 00:50:07;;;;;;;;;3.50;3.50;;;;;22.07;62.02;101237.09;5120244;27;45439;-61
2022/08/05 00:52:32;;;;;;;;;5.00;4.00;;;;;22.06;63.24;101238.13;5120413;27;45363;-53
2022/08/05 00:54:57;;;;;;;;;8.50;5.00;;;;;22.06;61.69;101230.84;5120319;27;45299;-58
2022/08/05 00:57:23;;;;;;;;;6.50;5.50;;;;;22.03;62.52;101197.91;5120006;27;45958;-54
2022/08/05 00:59:48;;;;;;;;;7.00;7.00;;;;;22.02;62.93;101188.13;5119897;27;45276;-55
2022/08/05 01:02:14;;;;;;;;;5.00;4.00;;;;;22.08;63.31;101301.06;5120010;27;45357;-57
2022/08/05 01:04:39;;;;;;;;;4.75;4.75;;;;;22.08;61.32;101328.16;5118618;27;45525;-60
2022/08/05 01:07:04;;;;;;;;;5.75;4.00;;;;;21.97;61.82;101270.03;5119547;27;45964;-59
2022/08/05 01:09:30;;;;;;;;;4.50;4.25;;;;;22.08;61.43;101192.69;5118699;27;45558;-54
2022/08/05 01:12:02;;;;;;;;;5.25;4.50;;;;;22.08;62.31;101168.31;5118498;27;45412;-57
2022/08/05 01:14:54;;;;;;;;;7.50;3.75;;;;;22.05;62.27;101180.41;5119995;27;45382;-51
2022/08/05 01:17:30;;;;;;;;;6.00;4.75;;;;;22.01;61.90;101302.97;5035449;28;47083;-53
2022/08/05 01:20:08;;;;;;;;;4.40;2.80;;;;;21.99;61.49;101261.69;5036232;28;45357;-60
2022/08/05 01:22:51;;;;;;;;;6.40;4.40;;;;;21.97;61.71;101275.44;5036020;28;45309;-59
2022/08/05 01:25:46;;;;;;;;;4.75;3.00;;;;;21.93;61.25;101276.91;5036428;28;45452;-60
2022/08/05 01:28:43;;;;;;;;;4.00;4.00;;;;;21.90;61.38;101290.84;5035960;28;46112;-57
2022/08/05 01:31:34;;;;;;;;;4.00;3.20;;;;;21.85;61.04;101236.50;5035597;28;45530;-59
2022/08/05 01:34:24;;;;;;;;;4.75;4.75;;;;;21.77;61.36;101177.13;5035684;28;45471;-53
2022/08/05 01:36:57;;;;;;;;;3.00;3.00;;;;;21.74;62.18;101161.28;5035854;28;45396;-58
2022/08/05 01:39:24;;;;;;;;;3.00;3.00;;;;;21.72;62.48;101153.38;5035434;28;47103;-57
2022/08/05 01:41:51;;;;;;;;;4.00;3.00;;;;;21.67;62.39;101154.00;5035430;28;45383;-59
2022/08/05 01:44:18;;;;;;;;;5.00;2.25;;;;;21.59;62.07;101135.28;5035252;28;45458;-60
2022/08/05 01:46:44;;;;;;;;;5.00;5.00;;;;;21.47;62.24;101182.97;5035836;28;45270;-57
2022/08/05 01:49:15;;;;;;;;;5.75;4.00;;;;;21.49;62.27;101215.22;5035253;28;45395;-58
2022/08/05 01:51:42;;;;;;;;;4.40;4.40;;;;;21.48;63.01;101184.63;5035259;28;45441;-54
2022/08/05 01:54:09;;;;;;;;;5.20;5.20;;;;;21.43;62.92;101217.72;5065546;27;45284;-54
2022/08/05 01:56:40;;;;;;;;;4.25;3.75;;;;;21.52;62.30;101234.59;5100870;27;45386;-59
2022/08/05 01:59:10;;;;;;;;;3.75;3.75;;;;;21.55;63.09;101190.03;5118652;27;45361;-52
2022/08/05 02:01:37;;;;;;;;;5.25;3.75;;;;;21.50;62.74;101196.09;5118974;27;45329;-53
2022/08/05 02:04:04;;;;;;;;;3.75;3.75;;;;;21.42;63.69;101186.28;5118820;27;45448;-51
2022/08/05 02:06:30;;;;;;;;;5.25;4.00;;;;;21.48;63.49;101200.84;5119128;27;45326;-50
2022/08/05 02:08:56;;;;;;;;;3.75;3.75;;;;;21.47;63.88;101226.25;5118484;27;46072;-50
2022/08/05 02:11:22;;;;;;;;;7.40;3.60;;;;;21.42;64.31;101202.53;5118596;27;45646;-55
2022/08/05 02:13:59;;;;;;;;;5.00;3.00;;;;;21.41;63.04;101216.28;5118637;27;45327;-57
2022/08/05 02:16:29;;;;;;;;;5.00;3.00;;;;;21.31;62.92;101232.88;5118337;27;45238;-58
2022/08/05 02:19:10;;;;;;;;;3.00;3.00;;;;;21.28;62.74;101229.72;5118325;27;46141;-58
2022/08/05 02:21:42;;;;;;;;;2.75;2.00;;;;;21.26;63.05;101229.94;5118292;27;45432;-55
2022/08/05 02:24:13;;;;;;;;;8.50;3.25;;;;;21.31;64.08;101223.91;5118617;27;45467;-59
2022/08/05 02:26:45;;;;;;;;;4.50;4.50;;;;;21.34;63.82;101218.97;5118515;27;45430;-57
2022/08/05 02:29:15;;;;;;;;;6.25;5.25;;;;;21.39;63.31;101237.28;5118159;27;46537;-54
2022/08/05 02:31:43;;;;;;;;;3.00;3.00;;;;;21.37;63.29;101247.50;5118315;27;45371;-58
2022/08/05 02:34:13;;;;;;;;;6.50;4.00;;;;;21.37;63.50;101247.50;5118221;27;45382;-57
2022/08/05 02:36:42;;;;;;;;;3.75;3.75;;;;;21.37;63.80;101263.75;5118505;27;45413;-57
2022/08/05 02:39:09;;;;;;;;;7.50;3.00;;;;;21.25;63.51;101243.69;5118050;27;45440;-57
2022/08/05 02:41:35;;;;;;;;;3.60;3.00;;;;;21.33;63.11;101233.53;5118276;27;45306;-58
2022/08/05 02:44:05;;;;;;;;;4.00;4.00;;;;;21.33;62.85;101240.84;5118248;27;45173;-57
2022/08/05 02:46:31;;;;;;;;;4.25;4.25;;;;;21.33;62.65;101262.47;5118350;27;45406;-53
2022/08/05 02:48:58;;;;;;;;;4.50;3.00;;;;;21.29;62.45;101131.31;5118334;27;47284;-60
2022/08/05 02:51:24;;;;;;;;;3.60;3.60;;;;;21.26;63.59;101159.59;5118110;27;45455;-57
2022/08/05 02:53:50;;;;;;;;;3.75;2.00;;;;;21.22;64.16;101181.88;5118301;27;45152;-56
2022/08/05 02:56:16;;;;;;;;;3.25;2.00;;;;;21.20;63.44;101186.66;5118437;27;45392;-59
2022/08/05 02:58:43;;;;;;;;;3.25;2.75;;;;;21.17;63.43;101171.66;5117740;27;46219;-57
2022/08/05 03:01:12;;;;;;;;;2.00;1.40;;;;;21.13;63.32;101182.06;5117959;27;45431;-58
2022/08/05 03:03:42;;;;;;;;;4.40;3.00;;;;;21.11;62.59;101194.97;5117925;27;45399;-53
2022/08/05 03:06:09;;;;;;;;;5.50;3.00;;;;;21.06;63.62;101212.84;5118392;27;45394;-53
2022/08/05 03:08:37;;;;;;;;;2.00;2.00;;;;;21.02;62.69;101228.63;5117629;27;45376;-59
2022/08/05 03:11:02;;;;;;;;;3.20;3.20;;;;;21.00;62.62;101241.53;5117876;27;45501;-59
2022/08/05 03:13:28;;;;;;;;;2.75;2.75;;;;;20.99;62.34;101249.88;5117923;27;45230;-59
2022/08/05 03:15:53;;;;;;;;;7.50;5.00;;;;;20.95;62.87;101245.91;5118017;27;45446;-60
2022/08/05 03:18:18;;;;;;;;;5.75;5.50;;;;;20.91;63.34;101240.06;5117760;27;47100;-60
2022/08/05 03:20:44;;;;;;;;;4.50;4.50;;;;;20.86;62.81;101231.72;5117650;27;45209;-53
2022/08/05 03:23:10;;;;;;;;;3.00;3.00;;;;;20.83;63.23;101199.69;5117816;27;45745;-52
2022/08/05 03:25:37;;;;;;;;;3.00;3.00;;;;;20.80;63.79;101214.44;5117834;27;45369;-55
2022/08/05 03:28:05;;;;;;;;;4.00;2.50;;;;;20.77;62.64;101217.53;5118425;27;46003;-54
2022/08/05 03:30:32;;;;;;;;;4.00;2.75;;;;;20.66;62.16;101201.91;5120480;27;45469;-56
2022/08/05 03:32:59;;;;;;;;;3.25;3.25;;;;;20.80;61.90;101222.53;5121300;27;45408;-48
2022/08/05 03:35:26;;;;;;;;;4.00;3.00;;;;;20.81;62.04;101231.47;5121164;27;45564;-56
2022/08/05 03:37:55;;;;;;;;;4.50;4.00;;;;;20.80;61.83;101224.41;5120869;27;46136;-53
2022/08/05 03:40:20;;;;;;;;;3.00;3.00;;;;;20.79;62.28;101233.56;5121115;27;45389;-50
2022/08/05 03:42:45;;;;;;;;;2.00;2.00;;;;;20.79;61.78;101242.50;5121204;27;45267;-55
2022/08/05 03:45:11;;;;;;;;;7.00;3.00;;;;;20.80;61.90;101244.16;5121146;27;45455;-54
2022/08/05 03:47:36;;;;;;;;;5.00;2.00;;;;;20.81;61.54;101242.28;5120696;27;45485;-56
2022/08/05 03:50:02;;;;;;;;;4.00;2.75;;;;;20.82;62.86;101241.28;5119590;27;45352;-50
2022/08/05 03:52:32;;;;;;;;;3.50;3.00;;;;;20.83;62.06;101237.53;5120887;27;45407;-54
2022/08/05 03:55:03;;;;;;;;;4.75;3.00;;;;;20.81;62.42;101243.13;5120884;27;45314;-54
2022/08/05 03:57:32;;;;;;;;;2.50;2.50;;;;;20.81;62.14;101253.09;5120682;27;47725;-58
2022/08/05 04:00:10;;;;;;;;;3.60;3.00;;;;;20.82;61.00;101252.09;5120606;27;45524;-53
2022/08/05 04:02:37;;;;;;;;;2.75;2.00;;;;;20.83;61.84;101246.47;5120782;27;45388;-56
2022/08/05 04:05:04;;;;;;;;;3.00;3.00;;;;;20.82;62.48;101225.06;5120937;27;45265;-59
2022/08/05 04:07:30;;;;;;;;;2.25;2.25;;;;;20.72;62.99;101201.09;5120555;27;46077;-56
2022/08/05 04:09:57;;;;;;;;;4.75;3.00;;;;;20.80;62.21;101216.28;5120441;27;45338;-56
2022/08/05 04:12:22;;;;;;;;;3.25;3.25;;;;;20.75;62.07;101213.38;5120673;27;45420;-55
2022/08/05 04:14:49;;;;;;;;;2.75;2.75;;;;;20.81;62.22;101232.31;5120922;27;45191;-54
2022/08/05 04:17:15;;;;;;;;;4.00;2.50;;;;;20.73;61.75;101226.25;5120443;27;46320;-56
2022/08/05 04:19:43;;;;;;;;;3.00;2.40;;;;;20.78;61.07;101234.59;5120342;27;45376;-57
2022/08/05 04:22:09;;;;;;;;;3.00;3.00;;;;;20.71;60.89;101226.47;5120475;27;45511;-55
2022/08/05 04:24:34;;;;;;;;;5.25;3.50;;;;;20.73;60.74;101240.63;5120622;27;45405;-53
2022/08/05 04:26:59;;;;;;;;;5.25;3.00;;;;;20.68;61.05;101238.50;5120341;27;46279;-57
2022/08/05 04:29:25;;;;;;;;;2.75;2.75;;;;;20.63;61.51;101245.56;5120196;27;45358;-55
2022/08/05 04:31:50;;;;;;;;;4.00;2.00;;;;;20.55;61.40;101230.31;5120488;27;45355;-54
2022/08/05 04:34:16;;;;;;;;;3.00;3.00;;;;;20.53;60.49;101228.88;5120408;27;45169;-52
2022/08/05 04:36:41;;;;;;;;;3.00;3.00;;;;;20.51;61.12;101220.13;5120193;27;47377;-56
2022/08/05 04:39:06;;;;;;;;;5.00;3.25;;;;;20.46;61.00;101228.78;5119558;27;45320;-51
2022/08/05 04:41:32;;;;;;;;;3.00;3.00;;;;;20.42;60.89;101227.53;5120278;27;45354;-49
2022/08/05 04:43:57;;;;;;;;;3.75;3.00;;;;;20.43;60.91;101221.09;5120322;27;45319;-51
2022/08/05 04:46:22;;;;;;;;;7.50;5.00;;;;;20.43;60.33;101232.72;5119781;27;47081;-55
2022/08/05 04:48:48;;;;;;;;;4.00;4.00;;;;;20.41;61.44;101228.56;5120007;27;45339;-53
2022/08/05 04:51:13;;;;;;;;;4.25;3.00;;;;;20.39;60.98;101242.28;5119992;27;45960;-53
2022/08/05 04:53:39;;;;;;;;;4.00;3.00;;;;;20.35;60.85;101249.13;5120294;27;45320;-52
2022/08/05 04:56:06;;;;;;;;;4.50;2.25;;;;;20.36;61.09;101255.38;5119567;27;45815;-53
2022/08/05 04:58:31;;;;;;;;;3.00;3.00;;;;;20.35;61.66;101257.22;5119782;27;45447;-56
2022/08/05 05:00:57;;;;;;;;;3.00;3.00;;;;;20.35;61.35;101248.25;5120045;27;45373;-52
2022/08/05 05:03:22;;;;;;;;;4.00;4.00;;;;;20.36;61.31;101256.19;5119898;27;45285;-50
2022/08/05 05:05:47;;;;;;;;;4.50;4.00;;;;;20.34;61.66;101258.25;5100995;27;47053;-51
2022/08/05 05:08:13;;;;;;;;;4.00;4.00;;;;;20.38;61.54;101253.28;5119510;27;45385;-52
2022/08/05 05:10:41;;;;;;;;;4.00;4.00;;;;;20.42;62.11;101257.25;5119578;27;45372;-53
2022/08/05 05:13:12;;;;;;;;;5.00;5.00;;;;;20.48;61.10;101267.31;5119982;27;45318;-48
2022/08/05 05:15:38;;;;;;;;;5.50;4.00;;;;;20.53;61.16;101264.84;5119423;27;46183;-51
2022/08/05 05:18:04;;;;;;;;;6.25;4.75;;;;;20.58;60.87;101275.06;5119235;27;45413;-53
2022/08/05 05:20:29;;;;;;;;;4.50;3.50;;;;;20.55;60.40;101272.75;5119614;27;45270;-53
2022/08/05 05:22:59;;;;;;;;;6.00;4.00;;;;;20.59;60.65;101274.00;5119553;27;45212;-52
2022/08/05 05:25:26;;;;;;;;;7.00;4.00;;;;;20.66;60.11;101280.31;5119451;27;46153;-50
2022/08/05 05:27:51;;;;;;;;;5.25;5.00;;;;;20.74;60.07;101290.13;5119344;27;45352;-54
2022/08/05 05:30:18;;;;;;;;;5.00;5.00;;;;;20.76;60.60;101288.03;5119341;27;45498;-53
2022/08/05 05:32:43;;;;;;;;;7.00;4.00;;;;;20.75;59.94;101280.97;5119362;27;45472;-54
2022/08/05 05:35:09;;;;;;;;;2.75;2.75;;;;;20.75;59.81;101289.91;5118946;27;45395;-53
2022/08/05 05:37:55;;;;;;;;;4.50;4.25;;;;;20.79;60.08;101296.59;5118316;27;45240;-51
2022/08/05 05:40:22;;;;;;;;;5.00;3.00;;;;;20.76;60.17;101298.84;5118587;27;45239;-53
2022/08/05 05:42:49;;;;;;;;;4.00;4.00;;;;;20.82;60.14;101311.59;5119397;27;45297;-52
2022/08/05 05:45:14;;;;;;;;;3.00;3.00;;;;;20.82;59.59;101311.59;5118864;27;48519;-52
2022/08/05 05:47:40;;;;;;;;;4.75;4.75;;;;;20.82;60.16;101325.09;5119221;27;45516;-56
2022/08/05 05:50:08;;;;;;;;;3.25;3.00;;;;;20.82;60.02;101317.81;5118828;27;45364;-52
2022/08/05 05:52:33;;;;;;;;;5.00;3.00;;;;;20.84;60.65;101323.03;5118574;27;45395;-49
2022/08/05 05:55:00;;;;;;;;;4.00;3.25;;;;;20.85;59.70;101321.97;5118646;27;46130;-52
2022/08/05 05:57:25;;;;;;;;;4.00;4.00;;;;;20.91;59.34;101321.19;5100050;27;45454;-51
2022/08/05 05:59:51;;;;;;;;;6.00;3.00;;;;;20.88;59.91;101313.47;5118968;27;45310;-51
2022/08/05 06:02:16;;;;;;;;;5.50;3.75;;;;;21.00;59.71;101333.50;5100472;27;45369;-52
2022/08/05 06:04:42;;;;;;;;;4.00;4.00;;;;;21.04;59.37;101328.53;5118470;27;46158;-53
2022/08/05 06:07:07;;;;;;;;;4.50;3.25;;;;;21.09;59.64;101329.59;5118745;27;45233;-51
2022/08/05 06:09:32;;;;;;;;;4.50;4.50;;;;;21.17;58.83;101337.53;5118677;27;45235;-52
2022/08/05 06:11:58;;;;;;;;;4.25;4.25;;;;;21.24;59.00;101340.28;5118942;27;45260;-50
2022/08/05 06:14:23;;;;;;;;;3.75;3.00;;;;;21.30;58.99;101336.75;5118557;27;45411;-55
2022/08/05 06:16:48;;;;;;;;;3.25;3.25;;;;;21.34;58.90;101339.91;5118639;27;45295;-52
2022/08/05 06:19:14;;;;;;;;;4.50;4.50;;;;;21.37;58.68;101342.22;5118650;27;45369;-56
2022/08/05 06:21:39;;;;;;;;;7.00;5.00;;;;;21.33;58.56;101351.78;5118581;27;45412;-59
2022/08/05 06:24:06;;;;;;;;;8.50;6.50;;;;;21.27;58.93;101350.69;5118471;27;45430;-53
2022/08/05 06:26:31;;;;;;;;;4.00;3.80;;;;;21.22;58.82;101353.16;5118196;27;45366;-59
2022/08/05 06:28:57;;;;;;;;;7.00;3.25;;;;;21.20;58.97;101355.25;5118567;27;45436;-58
2022/08/05 06:31:22;;;;;;;;;5.25;4.50;;;;;21.21;59.68;101358.78;5118702;27;45319;-57
2022/08/05 06:33:47;;;;;;;;;4.50;4.00;;;;;21.21;59.46;101356.91;5118334;27;46281;-55
2022/08/05 06:36:13;;;;;;;;;3.00;3.00;;;;;21.23;58.89;101354.00;5118226;27;45335;-59
2022/08/05 06:38:38;;;;;;;;;7.00;3.00;;;;;21.23;59.72;101359.41;5118370;27;45810;-50
2022/08/05 06:41:04;;;;;;;;;5.00;5.00;;;;;21.24;59.27;101355.66;5118172;27;45282;-51
2022/08/05 06:43:30;;;;;;;;;6.25;3.75;;;;;21.30;58.92;101354.84;5118058;27;46748;-57
2022/08/05 06:45:55;;;;;;;;;7.25;4.75;;;;;21.26;59.20;101348.19;5118032;27;45299;-60
2022/08/05 06:48:20;;;;;;;;;6.00;4.00;;;;;21.41;58.98;101354.31;5118361;27;45609;-58
2022/08/05 06:50:46;;;;;;;;;7.00;4.00;;;;;21.48;58.21;101355.16;5118514;27;45191;-55
2022/08/05 06:53:13;;;;;;;;;6.00;5.75;;;;;21.50;58.21;101353.09;5118000;27;46080;-58
2022/08/05 06:55:39;;;;;;;;;5.00;5.00;;;;;21.60;58.61;101360.81;5117989;27;45529;-57
2022/08/05 06:58:04;;;;;;;;;4.00;4.00;;;;;21.72;58.58;101359.19;5117595;27;45394;-59
2022/08/05 07:00:30;;;;;;;;;4.25;4.25;;;;;21.95;57.76;101356.06;5118083;27;45355;-60
2022/08/05 07:02:56;;;;;;;;;5.00;5.00;;;;;22.17;57.37;101363.03;5119876;27;46129;-60
2022/08/05 07:05:21;;;;;;;;;4.75;4.00;;;;;22.48;56.43;101360.72;5121531;27;45314;-55
2022/08/05 07:07:47;;;;;;;;;7.00;7.00;;;;;22.84;55.68;101365.66;5121815;27;45306;-56
2022/08/05 07:10:13;;;;;;;;;8.50;6.00;;;;;23.24;54.61;101374.53;5121735;27;45310;-54
2022/08/05 07:18:06;;;;;;;;;6.00;5.80;;;;;24.75;51.15;101362.81;5121957;27;45283;-53
2022/08/05 07:20:32;;;;;;;;;8.25;4.50;;;;;25.23;50.59;101367.53;5121507;27;45376;-53
2022/08/05 07:22:57;;;;;;;;;5.75;3.75;;;;;25.73;49.40;101364.53;5121164;27;47117;-51
2022/08/05 07:25:22;;;;;;;;;6.00;4.50;;;;;26.22;47.69;101365.28;5121215;27;45363;-51
2022/08/05 07:27:49;;;;;;;;;4.25;4.25;;;;;26.74;45.89;101372.78;5121261;27;45344;-54
2022/08/05 07:30:14;;;;;;;;;6.00;3.80;;;;;27.28;46.38;101373.41;5121659;27;45397;-53
2022/08/05 07:32:40;;;;;;;;;4.25;3.25;;;;;27.91;43.89;101371.63;5121029;27;45417;-52
2022/08/05 07:35:09;;;;;;;;;6.00;4.00;;;;;28.55;45.31;101372.97;5120974;27;45330;-49
2022/08/05 07:37:35;;;;;;;;;3.60;3.60;;;;;29.32;42.72;101382.22;5121337;27;45553;-53
2022/08/05 07:40:01;;;;;;;;;6.75;4.75;;;;;31.22;37.97;101383.47;5121280;27;45341;-56
2022/08/05 07:42:26;;;;;;;;;4.00;3.25;;;;;33.65;35.62;101376.38;5120914;27;45826;-55
2022/08/05 07:44:52;;;;;;;;;6.00;6.00;;;;;35.44;33.28;101375.41;5120854;27;45310;-52
2022/08/05 07:47:17;;;;;;;;;8.50;5.75;;;;;36.95;30.19;101380.59;5121332;27;45330;-53
2022/08/05 07:49:43;;;;;;;;;5.00;4.00;;;;;38.17;28.57;101379.75;5121244;27;45381;-52
2022/08/05 07:52:08;;;;;;;;;4.25;3.00;;;;;39.21;26.95;101382.16;5120912;27;45964;-55
2022/08/05 07:54:33;;;;;;;;;4.00;4.00;;;;;40.20;25.16;101385.94;5121037;27;45321;-55
2022/08/05 07:57:00;;;;;;;;;4.00;3.75;;;;;41.12;24.90;101386.22;5112313;27;45674;-53
2022/08/05 07:59:25;;;;;;;;;5.00;2.80;;;;;41.92;22.62;101387.28;5121075;27;45350;-51
2022/08/05 08:01:51;;;;;;;;;3.00;3.00;;;;;42.81;22.90;101393.16;5120252;27;45387;-59
2022/08/05 08:04:17;;;;;;;;;4.00;4.00;;;;;43.59;20.61;101397.63;5120368;27;45330;-54
2022/08/05 08:06:43;;;;;;;;;4.20;4.20;;;;;44.30;21.14;101401.63;5120980;27;45218;-57
2022/08/05 08:09:08;;;;;;;;;6.00;4.00;;;;;44.98;20.04;101401.34;5120983;27;45433;-58
2022/08/05 08:11:33;;;;;;;;;3.00;3.00;;;;;45.62;19.34;101403.97;5120461;27;45412;-59
2022/08/05 08:13:59;;;;;;;;;2.75;2.75;;;;;46.23;19.32;101408.78;5120027;27;45211;-58
2022/08/05 08:16:24;;;;;;;;;5.25;4.00;;;;;46.61;18.55;101399.44;5120704;27;45252;-54
2022/08/05 08:18:49;;;;;;;;;3.75;3.75;;;;;47.14;19.24;101409.91;5120772;27;45402;-54
2022/08/05 08:21:15;;;;;;;;;3.75;3.75;;;;;47.52;16.34;101414.44;5120416;27;45321;-53
2022/08/05 08:23:40;;;;;;;;;4.50;4.50;;;;;48.06;17.01;101415.94;5120389;27;45252;-57
2022/08/05 08:26:05;;;;;;;;;4.50;3.75;;;;;48.64;16.61;101422.91;5120412;27;45679;-52
2022/08/05 08:28:31;;;;;;;;;4.25;3.75;;;;;49.02;16.02;101420.78;5120645;27;45382;-53
2022/08/05 08:30:57;;;;;;;;;4.00;3.40;;;;;49.27;16.62;101421.75;5119893;27;46194;-52
2022/08/05 08:33:22;;;;;;;;;4.25;4.25;;;;;49.32;15.01;101434.69;5120246;27;45387;-52
2022/08/05 08:35:48;;;;;;;;;3.00;3.00;;;;;49.55;15.98;101425.91;5120324;27;45303;-53
2022/08/05 08:38:15;;;;;;;;;4.00;4.00;;;;;49.61;16.02;101433.63;5120523;27;45358;-55
2022/08/05 08:40:41;;;;;;;;;3.00;2.80;;;;;49.73;15.59;101438.13;5120013;27;45349;-52
2022/08/05 08:43:07;;;;;;;;;3.75;2.25;;;;;49.81;14.87;101442.56;5119869;27;45254;-56
2022/08/05 08:45:36;;;;;;;;;2.40;2.00;;;;;50.03;14.61;101439.84;5120035;27;45447;-52
2022/08/05 08:48:04;;;;;;;;;3.60;2.20;;;;;50.36;13.89;101448.00;5120180;27;45498;-57
2022/08/05 08:50:30;;;;;;;;;6.60;3.80;;;;;50.81;14.10;101442.72;5120089;27;46080;-59
2022/08/05 08:53:02;;;;;;;;;4.60;3.40;;;;;51.15;13.48;101462.91;5119631;27;45447;-59
2022/08/05 08:55:27;;;;;;;;;6.00;3.40;;;;;51.56;12.82;101462.41;5119983;27;45502;-50
2022/08/05 08:57:53;;;;;;;;;2.25;2.25;;;;;51.86;11.85;101452.53;5120130;27;45553;-53
2022/08/05 09:00:18;;;;;;;;;6.25;3.25;;;;;52.11;12.08;101456.03;5119678;27;45395;-57
2022/08/05 09:02:45;;;;;;;;;2.00;2.00;;;;;52.45;12.11;101461.06;5119811;27;45452;-57
2022/08/05 09:05:11;;;;;;;;;4.60;3.00;;;;;52.62;12.46;101457.31;5119713;27;45408;-54
2022/08/05 09:07:36;;;;;;;;;3.00;3.00;;;;;52.72;11.91;101460.44;5119830;27;45327;-56
2022/08/05 09:10:04;;;;;;;;;2.75;2.75;;;;;52.76;11.67;101458.38;5118475;27;46211;-58
2022/08/05 09:12:30;;;;;;;;;2.80;2.60;;;;;52.90;12.17;101466.81;5118554;27;45482;-58
2022/08/05 09:14:55;;;;;;;;;5.75;2.75;;;;;52.86;12.25;101460.31;5119379;27;45361;-56
2022/08/05 09:17:21;;;;;;;;;1.00;1.00;;;;;53.01;11.73;101458.97;5119587;27;45515;-57
2022/08/05 09:19:46;;;;;;;;;3.00;3.00;;;;;53.19;12.13;101458.78;5119010;27;47162;-57
2022/08/05 09:22:11;;;;;;;;;5.00;4.25;;;;;53.26;11.06;101460.75;5119329;27;45306;-57
2022/08/05 09:24:37;;;;;;;;;3.00;3.00;;;;;52.69;11.92;101459.28;5119326;27;45244;-58
2022/08/05 09:27:07;;;;;;;;;8.00;3.75;;;;;50.20;13.21;101466.56;5118118;27;45374;-56
2022/08/05 09:29:47;;;;;;;;;2.00;2.00;;;;;50.23;13.66;101472.22;5119081;27;45308;-56
2022/08/05 09:32:13;;;;;;;;;1.40;1.40;;;;;49.88;13.58;101470.91;5118975;27;45434;-58
2022/08/05 09:34:48;;;;;;;;;7.50;3.00;;;;;49.67;13.67;101474.44;5118910;27;45486;-53
2022/08/05 09:37:19;;;;;;;;;3.80;3.00;;;;;50.71;14.17;101471.06;5119269;27;45424;-58
2022/08/05 09:39:45;;;;;;;;;2.80;2.80;;;;;51.28;12.62;101471.81;5118783;27;45180;-50
2022/08/05 09:42:11;;;;;;;;;2.25;2.00;;;;;51.82;11.88;101471.59;5118729;27;45559;-54
2022/08/05 09:44:38;;;;;;;;;6.40;3.60;;;;;52.24;12.20;101461.25;5119010;27;45386;-52
2022/08/05 09:47:09;;;;;;;;;4.00;4.00;;;;;52.38;11.96;101467.66;5118947;27;45444;-59
2022/08/05 09:49:45;;;;;;;;;1.60;1.60;;;;;52.80;11.49;101467.69;5118469;27;46704;-53
2022/08/05 09:52:22;;;;;;;;;2.80;1.80;;;;;53.00;12.42;101467.91;5118531;27;45449;-55
2022/08/05 09:54:51;;;;;;;;;5.20;5.20;;;;;53.18;11.31;101477.03;5118897;27;45484;-54
2022/08/05 09:57:45;;;;;;;;;5.60;4.00;;;;;53.37;11.84;101478.47;5118650;27;45300;-57
2022/08/05 10:00:20;;;;;;;;;5.20;3.60;;;;;53.42;12.25;101483.69;5105303;27;46785;-52
2022/08/05 10:02:47;;;;;;;;;7.00;5.80;;;;;53.48;11.40;101470.63;5118277;27;45557;-57
2022/08/05 10:05:24;;;;;;;;;3.60;3.20;;;;;53.47;11.83;101476.72;5118530;27;45298;-57
2022/08/05 10:07:50;;;;;;;;;3.80;3.80;;;;;53.60;11.56;101489.97;5118804;27;45292;-54
2022/08/05 10:10:21;;;;;;;;;5.80;5.80;;;;;53.65;11.91;101483.03;5118269;27;46383;-52
2022/08/05 10:12:59;;;;;;;;;5.20;5.00;;;;;53.34;11.81;101479.31;5117728;27;45826;-58
2022/08/05 10:15:30;;;;;;;;;5.80;5.00;;;;;53.16;11.51;101479.50;5118422;27;45526;-58
2022/08/05 10:18:15;;;;;;;;;6.00;6.00;;;;;52.79;11.18;101477.44;5118671;27;45310;-52
2022/08/05 10:20:50;;;;;;;;;3.00;3.00;;;;;52.93;11.96;101479.34;5118160;27;47219;-54
2022/08/05 10:23:17;;;;;;;;;5.60;5.20;;;;;52.59;12.37;101482.91;5117943;27;45221;-53
2022/08/05 10:25:43;;;;;;;;;6.60;6.00;;;;;52.01;12.38;101481.69;5118226;27;45469;-55
2022/08/05 10:28:08;;;;;;;;;5.00;5.00;;;;;51.94;12.51;101482.50;5118368;27;45291;-56
2022/08/05 10:30:35;;;;;;;;;5.75;5.75;;;;;51.26;12.99;101482.75;5118014;27;46090;-53
2022/08/05 10:33:01;;;;;;;;;7.00;4.00;;;;;50.62;13.04;101466.63;5117896;27;45416;-53
2022/08/05 10:35:27;;;;;;;;;8.00;6.80;;;;;48.09;14.39;101479.22;5117770;27;45361;-54
2022/08/05 10:37:54;;;;;;;;;4.50;2.00;;;;;45.59;16.20;101472.16;5118076;27;45437;-54
2022/08/05 10:41:01;;;;;;;;;5.80;5.80;;;;;46.40;15.21;101477.81;5116904;27;45499;-57
2022/08/05 10:43:44;;;;;;;;;5.60;5.60;;;;;47.85;14.68;101477.72;5034430;28;45363;-52
2022/08/05 10:46:12;;;;;;;;;6.80;3.60;;;;;46.96;15.14;101480.06;5033915;28;45434;-52
2022/08/05 10:48:43;;;;;;;;;6.60;6.20;;;;;47.74;13.99;101467.09;5034943;28;45347;-56
2022/08/05 10:51:10;;;;;;;;;9.00;6.20;;;;;47.96;13.87;101467.38;5034498;28;45421;-60
2022/08/05 10:53:56;;;;;;;;;5.00;4.60;;;;;47.79;14.38;101477.25;5034677;28;45415;-54
2022/08/05 10:56:26;;;;;;;;;4.20;4.20;;;;;48.27;14.05;101473.78;5034626;28;45503;-59
2022/08/05 10:58:52;;;;;;;;;6.00;5.40;;;;;48.62;13.28;101487.44;5034532;28;45534;-54
2022/08/05 11:01:28;;;;;;;;;6.00;3.75;;;;;48.31;14.32;101485.91;5034487;28;45619;-56
2022/08/05 11:04:13;;;;;;;;;6.60;5.00;;;;;45.39;16.03;101476.91;5034486;28;45412;-53
2022/08/05 11:07:00;;;;;;;;;5.60;4.80;;;;;46.09;15.56;101502.13;5034520;28;45321;-56
2022/08/05 11:09:35;;;;;;;;;6.80;5.80;;;;;46.82;14.61;101488.22;5034491;28;45324;-54
2022/08/05 11:12:01;;;;;;;;;4.20;2.40;;;;;47.14;14.56;101502.88;5034227;28;47346;-56
2022/08/05 11:14:35;;;;;;;;;4.20;3.00;;;;;47.24;14.83;101485.28;5033692;28;45403;-56
2022/08/05 11:17:25;;;;;;;;;4.20;2.80;;;;;47.20;14.23;101498.50;5061284;27;45337;-55
2022/08/05 11:19:52;;;;;;;;;5.60;5.40;;;;;45.81;15.13;101501.56;5118154;27;45521;-55
2022/08/05 11:22:40;;;;;;;;;7.80;5.00;;;;;42.58;17.63;101499.91;5117852;27;45318;-55
2022/08/05 11:25:30;;;;;;;;;5.80;4.40;;;;;41.68;18.48;101502.50;5117760;27;45555;-53
2022/08/05 11:28:11;;;;;;;;;4.80;4.80;;;;;41.85;17.69;101492.06;5117903;27;45590;-53
2022/08/05 11:30:54;;;;;;;;;8.20;5.00;;;;;40.05;19.15;101504.31;5117719;27;45569;-55
2022/08/05 11:33:39;;;;;;;;;7.00;5.60;;;;;39.22;19.78;101506.28;5117357;27;45400;-53
2022/08/05 11:36:09;;;;;;;;;6.80;5.80;;;;;38.60;20.70;101501.50;5117297;27;45519;-56